Historyczne dane pomiarowe

Dodano dane terminowe – wersja testowa.

Dane z okresu 1951-2019

Wersja bazy: 1.34 [2019-03-16, lista zmian], aktualizacja planowana na 2019-04-15

Dane meteo z obszaru Polski uzyskane na podstawie danych udostępnionych przez Instytut Meteorologii i Gospodarki Wodnej – Państwowy Instytut Badawczy.

 

Wybierz Datę:    

       

TemperaturaWilgotnośćWiatrCiśnienieOpadyŚniegCzas trwania zjawisk
 Stacja t tx tn tng RH VA  wxwx mslp ppp RRR   cm mm wxwxwxwxwxwxwx
1956-11-09 -0.1 5.7 -2.7- 82.5- 1.3 0.7---- 0.0------------
1956-11-08 2.7 4.1 0.5- 92.8- 7.7 0.7---- 1.2------------
1956-11-07 3.5 7.5 1.3- 95.0- 8.0 2.7---- 14.0------------
1956-11-06 5.5 7.3 -0.5- 87.5- 8.0 6.7---- 21.1------------
1956-11-05 5.5 7.8 1.4- 84.8- 5.7 4.7---- 3.7------------
1956-11-04 1.8 2.7 -3.4- 89.3- 8.0 2.7---- 1.7------------
1956-11-03 -0.5 2.0 -2.1- 94.8- 5.0 0.0---- 0.0------------
1956-11-02 0.0 0.4 -2.8- 96.0- 8.0 1.3---- 0.9------------
1956-11-01 -1.2 5.2 -8.3- 85.3- 2.7 1.0---- 0.0------------
1956-10-31 -3.4 3.3 -4.7- 81.0- 4.3 7.3---- 0.0------------
1956-10-30 4.3 7.1 2.1- 90.8- 7.3 2.7---- 0.0------------
1956-10-29 5.5 8.4 3.9- 95.5- 8.0 3.7---- 4.5------------
1956-10-28 6.8 9.8 3.5- 96.0- 8.0 3.7---- 41.5------------
1956-10-27 7.1 9.2 4.1- 97.0- 8.0 4.3---- 10.5------------
1956-10-26 6.1 10.8 4.7- 94.3- 8.0 3.0---- 22.7------------
1956-10-25 9.8 11.5 8.0- 91.8- 8.0 5.7---- 12.5------------
1956-10-24 10.0 14.3 6.6- 88.5- 0.0 4.3---- 0.4------------
1956-10-23 11.0 16.8 8.0- 86.5- 3.0 3.3---- 0.0------------
1956-10-22 11.3 19.2 5.6- 90.0- 0.0 2.0---- 0.0------------
1956-10-21 11.9 18.2 8.5- 90.5- 3.7 1.7---- 0.0------------
1956-10-20 11.7 15.0 7.6- 94.8- 8.0 1.3---- 0.0------------
1956-10-19 11.5 14.2 9.8- 97.5- 8.0 3.0---- 0.9------------
1956-10-18 11.2 12.4 7.7- 96.0- 8.0 4.7---- 4.9------------
1956-10-17 8.8 15.6 1.0- 81.8- 2.3 3.7---- 1.6------------
1956-10-16 5.3 14.4 -2.7- 84.3- 0.0 0.3---- 0.0------------
1956-10-15 6.4 12.4 3.1- 85.5- 0.0 1.0---- 0.0------------
1956-10-14 10.4 12.3 8.0- 94.5- 6.3 4.7---- 1.3------------
1956-10-13 10.5 12.0 6.1- 80.0- 8.0 7.0---- 0.0------------
1956-10-12 9.0 15.1 4.4- 82.3- 3.0 3.0---- 0.0------------
1956-10-11 5.3 12.3 -1.5- 84.5- 3.3 1.3---- 0.0------------
1956-10-10 4.7 9.0 1.7- 86.8- 3.7 2.0---- 0.0------------
1956-10-09 7.4 8.8 3.2- 92.0- 8.0 3.0---- 2.5------------
1956-10-08 3.9 9.2 -0.4- 86.3- 6.0 1.3---- 0.0------------
1956-10-07 4.8 10.3 1.6- 85.8- 4.7 3.3---- 0.6------------
1956-10-06 5.6 7.9 3.9- 89.0- 6.7 2.0---- 1.7------------
1956-10-05 8.5 11.9 6.4- 85.8- 7.7 3.7---- 4.0------------
1956-10-04 11.2 15.3 8.5- 90.0- 5.7 2.0---- 0.9------------
1956-10-03 14.0 17.3 11.3- 86.0- 7.3 4.0---- 3.7------------
1956-10-02 16.8 23.5 10.3- 84.5- 2.0 4.0---- 0.2------------
1956-10-01 16.9 24.8 10.5- 83.8- 1.7 2.7---- 0.0------------
1956-09-30 14.3 20.3 9.2- 88.5- 2.3 0.7---- 0.0------------
1956-09-29 16.2 19.6 13.3- 85.8- 7.7 3.7---- 0.2------------
1956-09-28 15.2 18.5 11.5- 83.8- 5.0 5.3---- 0.0------------
1956-09-27 15.6 21.5 10.7- 85.8- 4.7 3.0---- 1.3------------
1956-09-26 18.3 24.2 11.5- 59.0- 2.3 4.0---- 0.3------------
1956-09-25 16.8 24.0 6.8- 63.5- 0.0 4.3---- 0.0------------
1956-09-24 12.5 16.8 7.7- 80.0- 0.0 4.0---- 0.0------------
1956-09-23 13.5 19.6 4.9- 76.8- 0.0 4.3---- 0.0------------
1956-09-22 13.5 21.7 4.1- 81.0- 0.0 1.7---- 0.0------------
1956-09-21 11.7 20.0 4.1- 84.3- 0.0 1.0---- 0.0------------
1956-09-20 10.3 18.4 3.0- 83.5- 4.0 1.7---- 0.0------------
1956-09-19 8.6 17.5 0.3- 80.8- 2.3 0.7---- 0.0------------
1956-09-18 9.0 14.0 4.9- 85.0- 4.0 0.7---- 0.0------------
1956-09-17 9.7 11.9 7.8- 95.0- 7.7 3.3---- 4.4------------
1956-09-16 11.2 17.4 4.4- 85.0- 5.7 1.7---- 0.0------------
1956-09-15 9.8 14.6 4.9- 95.3- 4.3 0.3---- 0.0------------
1956-09-14 9.6 15.7 7.2- 87.0- 3.7 1.7---- 0.0------------
1956-09-13 9.7 13.1 7.0- 89.8- 4.7 5.7---- 5.9------------
1956-09-12 11.1 14.5 7.5- 88.0- 5.0 5.7---- 3.2------------
1956-09-11 15.1 19.7 13.0- 94.3- 5.3 2.3---- 13.2------------
248.4 ms

 

Źródłem pochodzenia danych jest Instytut Meteorologii i Gospodarki Wodnej – Państwowy Instytut Badawczy. Dane Instytutu Meteorologii i Gospodarki Wodnej – Państwowego Instytutu Badawczego zostały przetworzone.

Dane źródłowe można odnaleźć na stronie https://dane.imgw.pl